Time;durP1;ratioP1;P1;durP2;ratioP2;P2;SDS_P1;SDS_P2;PMS_P1;PMS_P2;Temp;Humidity;BMP_temperature;BMP_pressure;BME280_temperature;BME280_humidity;BME280_pressure;Samples;Min_cycle;Max_cycle;Signal;HPM_P1;HPM_P2
2022/10/25 04:02:36;;;;;;;1999.90;999.90;;;11.10;99.90;;;;;;4954704;28;20059;-77
2022/10/25 04:05:01;;;;;;;1999.90;999.90;;;11.00;99.90;;;;;;4956643;28;20405;-77
2022/10/25 04:07:27;;;;;;;1999.90;999.90;;;11.00;99.90;;;;;;4958298;28;20067;-78
2022/10/25 04:09:52;;;;;;;1999.90;999.90;;;10.90;99.90;;;;;;4957101;28;20119;-78
2022/10/25 04:12:18;;;;;;;1999.90;999.90;;;10.90;99.90;;;;;;4958265;28;20548;-77
2022/10/25 04:14:43;;;;;;;1999.90;999.90;;;10.80;99.90;;;;;;4960070;28;20047;-78
2022/10/25 04:17:09;;;;;;;1999.90;999.90;;;10.70;99.90;;;;;;4958574;28;20067;-77
2022/10/25 04:19:34;;;;;;;1999.90;999.90;;;10.60;99.90;;;;;;4958635;28;20032;-77
2022/10/25 04:22:03;;;;;;;1999.90;999.90;;;10.50;99.90;;;;;;4958142;28;20039;-78
2022/10/25 04:24:29;;;;;;;1999.90;999.90;;;10.50;99.90;;;;;;4958052;28;20044;-77
2022/10/25 04:26:55;;;;;;;1999.90;999.90;;;10.50;99.90;;;;;;4957683;28;20032;-76
2022/10/25 04:29:20;;;;;;;1999.90;999.90;;;10.50;99.90;;;;;;4957489;28;20043;-78
2022/10/25 04:31:46;;;;;;;1999.90;999.90;;;10.50;99.90;;;;;;4958761;28;20409;-76
2022/10/25 04:34:11;;;;;;;1999.90;999.90;;;10.50;99.90;;;;;;4958630;28;20091;-77
2022/10/25 04:36:40;;;;;;;1999.90;999.90;;;10.50;99.90;;;;;;4956751;28;20046;-76
2022/10/25 04:39:05;;;;;;;1999.90;999.90;;;10.50;99.90;;;;;;4958228;28;20087;-76
2022/10/25 04:41:31;;;;;;;1999.90;999.90;;;10.60;99.90;;;;;;4956518;28;20103;-76
2022/10/25 04:43:56;;;;;;;1999.90;999.90;;;10.50;99.90;;;;;;4956882;28;20087;-76
2022/10/25 04:46:22;;;;;;;1999.90;999.90;;;10.40;99.90;;;;;;4956620;28;20558;-76
2022/10/25 04:48:48;;;;;;;1999.90;999.90;;;10.40;99.90;;;;;;4958376;28;20477;-76
2022/10/25 04:51:14;;;;;;;1999.90;999.90;;;10.30;99.90;;;;;;4956823;28;20091;-74
2022/10/25 04:53:39;;;;;;;1999.90;999.90;;;10.10;99.90;;;;;;4958290;28;20040;-74
2022/10/25 04:56:10;;;;;;;1999.90;999.90;;;10.00;99.90;;;;;;4956368;28;20087;-74
2022/10/25 04:58:36;;;;;;;1999.90;999.90;;;10.10;99.90;;;;;;4958393;28;20040;-75
2022/10/25 05:01:05;;;;;;;1999.90;999.90;;;10.10;99.90;;;;;;4958545;28;20513;-75
2022/10/25 05:03:31;;;;;;;1999.90;999.90;;;10.10;99.90;;;;;;4958834;28;20421;-76
2022/10/25 05:06:13;;;;;;;1999.90;999.90;;;10.20;99.90;;;;;;4957166;28;20039;-74
2022/10/25 05:08:40;;;;;;;1999.90;999.90;;;10.20;99.90;;;;;;4957310;28;20035;-74
2022/10/25 05:11:07;;;;;;;1999.90;999.90;;;10.20;99.90;;;;;;4956774;28;20032;-75
2022/10/25 05:13:33;;;;;;;1999.90;999.90;;;10.20;99.90;;;;;;4958407;28;20043;-75
2022/10/25 05:15:59;;;;;;;1999.90;999.90;;;10.40;99.90;;;;;;4957120;28;20095;-74
2022/10/25 05:18:26;;;;;;;1999.90;999.90;;;10.50;99.90;;;;;;4956899;28;20514;-74
2022/10/25 05:20:52;;;;;;;1999.90;999.90;;;10.50;99.90;;;;;;4959092;28;20043;-74
2022/10/25 05:23:18;;;;;;;1999.90;999.90;;;10.50;99.90;;;;;;4957627;28;20043;-74
2022/10/25 05:25:44;;;;;;;1999.90;999.90;;;10.60;99.90;;;;;;4958666;28;20437;-74
2022/10/25 05:28:09;;;;;;;1999.90;999.90;;;10.70;99.90;;;;;;4958129;28;20031;-74
2022/10/25 05:30:42;;;;;;;1999.90;999.90;;;10.90;99.90;;;;;;4957387;28;20040;-75
2022/10/25 05:33:07;;;;;;;1999.90;999.90;;;11.00;99.90;;;;;;4958829;28;20490;-74
2022/10/25 05:35:33;;;;;;;1999.90;999.90;;;11.20;99.90;;;;;;4957389;28;20031;-74
2022/10/25 05:38:00;;;;;;;1999.90;999.90;;;11.20;99.90;;;;;;4958930;28;20482;-74
2022/10/25 05:40:25;;;;;;;1999.90;999.90;;;11.10;99.90;;;;;;4958348;28;20107;-75
2022/10/25 05:42:52;;;;;;;1999.90;999.90;;;11.10;99.90;;;;;;4955938;28;20059;-75
2022/10/25 05:45:18;;;;;;;1999.90;999.90;;;11.10;99.90;;;;;;4957826;28;20118;-81
2022/10/25 05:47:43;;;;;;;1999.90;999.90;;;11.00;99.90;;;;;;4956724;28;20115;-78
2022/10/25 05:50:09;;;;;;;1999.90;999.90;;;10.90;99.90;;;;;;4956920;28;20149;-75
2022/10/25 05:52:34;;;;;;;1999.90;999.90;;;10.90;99.90;;;;;;4957956;28;20047;-75
2022/10/25 05:55:00;;;;;;;1999.90;999.90;;;10.90;99.90;;;;;;4957262;28;20035;-77
2022/10/25 05:57:25;;;;;;;1999.90;999.90;;;10.80;99.90;;;;;;4957673;28;20383;-74
2022/10/25 05:59:51;;;;;;;1999.90;999.90;;;10.80;99.90;;;;;;4956523;28;20461;-74
2022/10/25 06:02:16;;;;;;;1999.90;999.90;;;10.80;99.90;;;;;;4957428;28;20087;-75
2022/10/25 06:04:42;;;;;;;1999.90;999.90;;;10.80;99.90;;;;;;4956269;28;20075;-74
2022/10/25 06:07:07;;;;;;;1999.90;999.90;;;10.80;99.90;;;;;;4957672;28;20088;-74
2022/10/25 06:09:33;;;;;;;1999.90;999.90;;;10.70;99.90;;;;;;4956115;28;20040;-75
2022/10/25 06:11:58;;;;;;;1999.90;999.90;;;10.70;99.90;;;;;;4957365;28;20043;-75
2022/10/25 06:14:24;;;;;;;1999.90;999.90;;;10.80;99.90;;;;;;4957112;28;20114;-76
2022/10/25 06:16:50;;;;;;;1999.90;999.90;;;10.70;99.90;;;;;;4957328;28;20478;-77
2022/10/25 06:19:15;;;;;;;1999.90;999.90;;;10.70;99.90;;;;;;4956138;28;20557;-78
2022/10/25 06:21:41;;;;;;;1999.90;999.90;;;10.80;99.90;;;;;;4957628;28;20035;-76
2022/10/25 06:24:08;;;;;;;1999.90;999.90;;;10.80;99.90;;;;;;4955513;28;20035;-77
2022/10/25 06:26:33;;;;;;;1999.90;999.90;;;10.90;99.90;;;;;;4955182;28;20035;-76
2022/10/25 06:29:01;;;;;;;1999.90;999.90;;;11.00;99.90;;;;;;4958573;28;20066;-76
2022/10/25 06:31:29;;;;;;;1999.90;999.90;;;11.10;99.90;;;;;;4956397;28;20016;-76
2022/10/25 06:33:54;;;;;;;1999.90;999.90;;;11.20;99.90;;;;;;4957066;28;20039;-76
2022/10/25 06:36:22;;;;;;;1999.90;999.90;;;11.30;99.90;;;;;;4955562;28;20042;-76
2022/10/25 06:38:48;;;;;;;1999.90;999.90;;;11.50;99.90;;;;;;4955607;28;20075;-76
2022/10/25 06:41:17;;;;;;;1999.90;999.90;;;11.60;99.90;;;;;;4954842;28;20480;-76
2022/10/25 06:43:42;;;;;;;1999.90;999.90;;;11.80;99.90;;;;;;4955229;28;20042;-77
2022/10/25 06:46:16;;;;;;;1999.90;999.90;;;11.90;99.90;;;;;;4956520;28;20079;-76
2022/10/25 06:48:42;;;;;;;1999.90;999.90;;;12.00;99.90;;;;;;4957290;28;20038;-77
2022/10/25 06:51:08;;;;;;;1999.90;999.90;;;12.10;99.90;;;;;;4954648;28;20046;-78
2022/10/25 06:53:35;;;;;;;1999.90;999.90;;;12.20;99.90;;;;;;4955678;28;20040;-79
2022/10/25 06:56:02;;;;;;;1999.90;999.90;;;12.20;99.90;;;;;;4956826;28;20535;-77
2022/10/25 06:58:29;;;;;;;1999.90;999.90;;;12.20;99.90;;;;;;4955173;28;20071;-76
2022/10/25 07:01:00;;;;;;;1999.90;999.90;;;12.20;99.90;;;;;;4955327;28;20039;-76
2022/10/25 07:03:29;;;;;;;1999.90;999.90;;;12.30;99.90;;;;;;4955673;28;20043;-77
2022/10/25 07:05:58;;;;;;;1999.90;999.90;;;12.40;99.90;;;;;;4956623;28;20032;-79
2022/10/25 07:08:24;;;;;;;1999.90;999.90;;;12.30;99.90;;;;;;4955454;28;20036;-76
2022/10/25 07:10:56;;;;;;;1999.90;999.90;;;12.40;99.90;;;;;;4955535;28;20036;-77
2022/10/25 07:13:22;;;;;;;1999.90;999.90;;;12.30;99.90;;;;;;4955236;28;20069;-76
2022/10/25 07:15:47;;;;;;;1999.90;999.90;;;12.40;99.90;;;;;;4954698;28;20513;-76
2022/10/25 07:18:13;;;;;;;1999.90;999.90;;;12.40;99.90;;;;;;4956418;28;20056;-76
2022/10/25 07:20:39;;;;;;;1999.90;999.90;;;12.50;99.90;;;;;;4954669;28;20150;-76
2022/10/25 07:23:04;;;;;;;1999.90;999.90;;;12.60;99.90;;;;;;4956226;28;20039;-77
2022/10/25 07:25:30;;;;;;;1999.90;999.90;;;12.60;99.90;;;;;;4954522;28;20039;-79
2022/10/25 07:27:56;;;;;;;1999.90;999.90;;;12.70;99.90;;;;;;4954614;28;20036;-76
2022/10/25 07:30:22;;;;;;;1999.90;999.90;;;12.70;99.90;;;;;;4954234;28;20036;-79
2022/10/25 07:32:47;;;;;;;1999.90;999.90;;;12.70;99.90;;;;;;4954464;28;20036;-76
2022/10/25 07:35:13;;;;;;;1999.90;999.90;;;12.70;99.90;;;;;;4955902;28;20032;-77
2022/10/25 07:37:39;;;;;;;1999.90;999.90;;;12.60;99.90;;;;;;4955992;28;20043;-76
2022/10/25 07:40:05;;;;;;;1999.90;999.90;;;12.60;99.90;;;;;;4956611;28;20040;-78
2022/10/25 07:42:30;;;;;;;1999.90;999.90;;;12.60;99.90;;;;;;4956258;28;20847;-76
2022/10/25 07:44:56;;;;;;;1999.90;999.90;;;12.70;99.90;;;;;;4956764;28;20031;-77
2022/10/25 07:47:21;;;;;;;1999.90;999.90;;;12.90;99.90;;;;;;4955504;28;20406;-78
2022/10/25 07:49:47;;;;;;;1999.90;999.90;;;12.80;99.90;;;;;;4954991;28;20122;-77
2022/10/25 07:52:13;;;;;;;1999.90;999.90;;;12.90;99.90;;;;;;4954855;28;20134;-77
2022/10/25 07:54:38;;;;;;;1999.90;999.90;;;12.80;99.90;;;;;;4954631;28;20526;-82
2022/10/25 07:57:05;;;;;;;1999.90;999.90;;;13.10;99.90;;;;;;4956030;28;20040;-77
2022/10/25 07:59:31;;;;;;;1999.90;999.90;;;13.10;99.90;;;;;;4954528;28;20043;-80
2022/10/25 08:01:56;;;;;;;1999.90;999.90;;;13.00;99.90;;;;;;4954195;28;20039;-78
2022/10/25 08:04:22;;;;;;;1999.90;999.90;;;13.00;99.90;;;;;;4954797;28;20050;-78
2022/10/25 08:06:47;;;;;;;1999.90;999.90;;;12.90;99.90;;;;;;4960006;28;20036;-78
2022/10/25 08:09:13;;;;;;;1999.90;999.90;;;13.00;99.90;;;;;;4964206;28;20071;-79
2022/10/25 08:11:38;;;;;;;1999.90;999.90;;;13.20;99.90;;;;;;4959436;28;20027;-80
2022/10/25 08:14:04;;;;;;;1999.90;999.90;;;13.10;99.90;;;;;;4959744;28;20063;-78
2022/10/25 08:16:30;;;;;;;1999.90;999.90;;;13.20;99.90;;;;;;4960067;28;20111;-80
2022/10/25 08:18:55;;;;;;;1999.90;999.90;;;13.30;99.90;;;;;;4960302;28;20046;-78
2022/10/25 08:21:21;;;;;;;1999.90;999.90;;;13.30;99.90;;;;;;4958412;28;20072;-78
2022/10/25 08:23:46;;;;;;;1999.90;999.90;;;13.40;99.90;;;;;;4961103;28;20043;-79
2022/10/25 08:26:12;;;;;;;1999.90;999.90;;;13.50;99.90;;;;;;4963286;28;20059;-79
2022/10/25 08:28:37;;;;;;;1999.90;999.90;;;13.60;99.90;;;;;;4959898;28;20051;-79
2022/10/25 08:31:03;;;;;;;1999.90;999.90;;;13.80;99.90;;;;;;4961325;28;20027;-80
2022/10/25 08:33:29;;;;;;;1999.90;999.90;;;13.90;99.90;;;;;;4961575;28;20549;-81
2022/10/25 08:35:55;;;;;;;1999.90;999.90;;;14.20;99.90;;;;;;4960960;28;20031;-82
2022/10/25 08:38:20;;;;;;;1999.90;999.90;;;14.50;99.90;;;;;;4960331;28;20052;-79
2022/10/25 08:41:02;;;;;;;1999.90;999.90;;;14.70;99.90;;;;;;4959735;28;20050;-79
2022/10/25 08:43:39;;;;;;;1999.90;999.90;;;15.00;99.90;;;;;;4960060;28;20035;-81
2022/10/25 08:46:12;;;;;;;1999.90;999.90;;;15.30;99.90;;;;;;4961055;28;20094;-79
2022/10/25 08:48:43;;;;;;;1999.90;999.90;;;15.20;99.90;;;;;;4959120;28;20031;-80
2022/10/25 08:51:35;;;;;;;1999.90;999.90;;;15.00;99.90;;;;;;4958831;28;20088;-79
2022/10/25 08:54:10;;;;;;;1999.90;999.90;;;15.00;99.90;;;;;;4958437;28;20032;-79
2022/10/25 08:56:35;;;;;;;1999.90;999.90;;;15.00;99.90;;;;;;4957883;28;20032;-80
2022/10/25 08:59:01;;;;;;;1999.90;999.90;;;15.00;99.90;;;;;;4958279;28;20043;-80
2022/10/25 09:01:42;;;;;;;1999.90;999.90;;;15.10;99.90;;;;;;4958184;28;20039;-80
2022/10/25 09:04:08;;;;;;;1999.90;999.90;;;15.20;99.90;;;;;;4960293;28;20038;-80
2022/10/25 09:07:12;;;;;;;1999.90;999.90;;;15.20;99.90;;;;;;4959105;28;20031;-80
2022/10/25 09:10:14;;;;;;;1999.90;999.90;;;15.30;99.90;;;;;;4957524;28;20051;-80
2022/10/25 09:13:03;;;;;;;1999.90;999.90;;;15.10;99.90;;;;;;4957790;28;20549;-79
2022/10/25 09:15:56;;;;;;;1999.90;999.90;;;15.20;99.90;;;;;;4959154;28;20039;-80
2022/10/25 09:18:36;;;;;;;1999.90;999.90;;;15.30;99.90;;;;;;4958767;28;20115;-79
2022/10/25 09:21:06;;;;;;;1999.90;999.90;;;15.30;99.90;;;;;;4958412;28;20047;-77
2022/10/25 09:23:33;;;;;;;1999.90;999.90;;;15.40;99.90;;;;;;4958177;28;20040;-80
2022/10/25 09:26:04;;;;;;;1999.90;999.90;;;15.50;99.90;;;;;;4957504;28;20486;-79
2022/10/25 09:28:45;;;;;;;1999.90;999.90;;;15.50;99.90;;;;;;4957799;28;20069;-79
2022/10/25 09:31:15;;;;;;;1999.90;999.90;;;15.50;99.90;;;;;;4957957;28;20024;-79
2022/10/25 09:33:45;;;;;;;1999.90;999.90;;;15.50;99.90;;;;;;4957548;28;20142;-79
2022/10/25 09:36:13;;;;;;;1999.90;999.90;;;15.50;99.90;;;;;;4956782;28;20027;-79
2022/10/25 09:38:44;;;;;;;1999.90;999.90;;;15.60;99.90;;;;;;4956687;28;20835;-79
2022/10/25 09:41:37;;;;;;;1999.90;999.90;;;15.60;99.90;;;;;;4958017;28;20521;-79
2022/10/25 09:44:16;;;;;;;1999.90;999.90;;;15.60;99.90;;;;;;4957342;28;20028;-79
2022/10/25 09:46:41;;;;;;;1999.90;999.90;;;15.60;99.90;;;;;;4957104;28;20027;-79
2022/10/25 09:49:10;;;;;;;1999.90;999.90;;;15.80;99.90;;;;;;4957086;28;20083;-80
2022/10/25 09:52:00;;;;;;;1999.90;999.90;;;15.90;99.90;;;;;;4957183;28;20045;-79
2022/10/25 09:54:38;;;;;;;1999.90;999.90;;;15.90;99.90;;;;;;4958312;28;20095;-79
2022/10/25 09:57:04;;;;;;;1999.90;999.90;;;16.00;99.90;;;;;;4956221;28;20036;-79
2022/10/25 09:59:29;;;;;;;1999.90;999.90;;;16.10;99.90;;;;;;4957455;28;20041;-79
2022/10/25 10:01:55;;;;;;;1999.90;999.90;;;16.20;99.90;;;;;;4957434;28;20490;-79
2022/10/25 10:04:29;;;;;;;1999.90;999.90;;;16.40;99.90;;;;;;4950412;28;20040;-79
2022/10/25 10:07:04;;;;;;;1999.90;999.90;;;16.30;99.90;;;;;;4955841;28;20031;-79
2022/10/25 10:09:31;;;;;;;1999.90;999.90;;;16.30;99.90;;;;;;4957733;28;20042;-80
2022/10/25 10:11:58;;;;;;;1999.90;999.90;;;16.60;99.90;;;;;;4957303;28;20036;-79
2022/10/25 10:14:32;;;;;;;1999.90;999.90;;;16.60;99.90;;;;;;4957438;28;20043;-80
2022/10/25 10:16:59;;;;;;;1999.90;999.90;;;16.70;99.90;;;;;;4979982;22;20039;-81
2022/10/25 10:19:29;;;;;;;1999.90;999.90;;;16.80;99.90;;;;;;5000137;28;20046;-80
2022/10/25 10:21:57;;;;;;;1999.90;999.90;;;16.70;99.90;;;;;;4998763;28;20037;-80
2022/10/25 10:24:35;;;;;;;1999.90;999.90;;;16.70;99.90;;;;;;4998835;28;20035;-80
2022/10/25 10:27:05;;;;;;;1999.90;999.90;;;16.80;99.90;;;;;;4997131;28;20471;-81
2022/10/25 10:29:35;;;;;;;1999.90;999.90;;;16.80;99.90;;;;;;4998907;28;20043;-81
2022/10/25 10:32:06;;;;;;;1999.90;999.90;;;16.90;99.90;;;;;;4999666;28;20500;-81
2022/10/25 10:34:40;;;;;;;1999.90;999.90;;;17.00;99.90;;;;;;4999390;28;20050;-81
2022/10/25 10:37:11;;;;;;;1999.90;999.90;;;17.20;99.90;;;;;;5000414;28;20035;-81
2022/10/25 10:39:52;;;;;;;1999.90;999.90;;;17.00;99.90;;;;;;5000901;28;20122;-81
2022/10/25 10:42:30;;;;;;;1999.90;999.90;;;17.00;99.90;;;;;;5001391;28;20062;-81
2022/10/25 10:45:02;;;;;;;1999.90;999.90;;;17.00;99.90;;;;;;4998033;28;20082;-80
2022/10/25 10:47:33;;;;;;;1999.90;999.90;;;16.80;99.90;;;;;;5002252;28;20037;-79
2022/10/25 10:49:59;;;;;;;1999.90;999.90;;;16.50;99.90;;;;;;4999913;28;20034;-79
2022/10/25 10:52:35;;;;;;;1999.90;999.90;;;16.40;99.90;;;;;;4996295;28;20031;-78
2022/10/25 10:55:01;;;;;;;1999.90;999.90;;;16.30;99.90;;;;;;4994810;28;20041;-79
2022/10/25 10:57:36;;;;;;;1999.90;999.90;;;16.30;99.90;;;;;;4993547;28;20045;-78
2022/10/25 11:00:03;;;;;;;1999.90;999.90;;;16.20;99.90;;;;;;4993593;28;20031;-79
2022/10/25 11:02:41;;;;;;;1999.90;999.90;;;16.10;99.90;;;;;;4993465;28;20408;-78
2022/10/25 11:05:36;;;;;;;1999.90;999.90;;;16.10;99.90;;;;;;5000397;28;20035;-80
2022/10/25 11:08:07;;;;;;;1999.90;999.90;;;16.10;99.90;;;;;;4991038;28;20852;-80
2022/10/25 11:10:37;;;;;;;1999.90;999.90;;;16.00;99.90;;;;;;4981904;28;20036;-80
2022/10/25 11:13:06;;;;;;;1999.90;999.90;;;16.00;99.90;;;;;;4985657;28;20041;-77
2022/10/25 11:15:56;;;;;;;1999.90;999.90;;;15.90;99.90;;;;;;4986113;28;20055;-80
2022/10/25 11:18:44;;;;;;;1999.90;999.90;;;16.00;99.90;;;;;;4983320;28;20047;-81
2022/10/25 11:21:45;;;;;;;1999.90;999.90;;;16.00;99.90;;;;;;4981308;28;20044;-81
2022/10/25 11:24:52;;;;;;;1999.90;999.90;;;15.90;99.90;;;;;;4985192;28;20106;-82
2022/10/25 11:27:29;;;;;;;1999.90;999.90;;;15.80;99.90;;;;;;4983458;28;20143;-81
2022/10/25 11:30:13;;;;;;;1999.90;999.90;;;15.80;99.90;;;;;;5001349;28;20082;-78
2022/10/25 11:33:14;;;;;;;1999.90;999.90;;;15.70;99.90;;;;;;5002248;28;20090;-81
2022/10/25 11:35:45;;;;;;;1999.90;999.90;;;15.60;99.90;;;;;;5019753;28;20041;-80
2022/10/25 11:38:50;;;;;;;1999.90;999.90;;;15.60;99.90;;;;;;5006299;28;20051;-81
2022/10/25 11:41:46;;;;;;;1999.90;999.90;;;15.60;99.90;;;;;;5002794;28;20039;-80
2022/10/25 11:44:22;;;;;;;1999.90;999.90;;;15.70;99.90;;;;;;4995391;28;20942;-80
2022/10/25 11:47:18;;;;;;;1999.90;999.90;;;15.90;99.90;;;;;;5002061;28;20039;-80
2022/10/25 11:50:21;;;;;;;1999.90;999.90;;;16.00;99.90;;;;;;4998911;28;20135;-80
2022/10/25 11:53:21;;;;;;;1999.90;999.90;;;16.10;99.90;;;;;;4997699;28;20035;-81
2022/10/25 11:55:53;;;;;;;1999.90;999.90;;;16.30;99.90;;;;;;4983640;28;20055;-81
2022/10/25 11:58:56;;;;;;;1999.90;999.90;;;16.70;99.90;;;;;;4988433;28;20508;-81
2022/10/25 12:01:43;;;;;;;1999.90;999.90;;;17.10;99.90;;;;;;4981148;28;20600;-79
2022/10/25 12:04:30;;;;;;;1999.90;999.90;;;17.40;99.90;;;;;;4978532;28;20118;-86
2022/10/25 12:07:09;;;;;;;1999.90;999.90;;;17.80;99.90;;;;;;4980388;28;20548;-78
2022/10/25 12:09:50;;;;;;;1999.90;999.90;;;18.40;99.90;;;;;;4991177;28;20043;-84
2022/10/25 12:12:24;;;;;;;1999.90;999.90;;;18.80;99.90;;;;;;4992840;28;20062;-77
2022/10/25 12:14:58;;;;;;;1999.90;999.90;;;18.80;99.90;;;;;;4982743;28;20036;-76
2022/10/25 12:17:29;;;;;;;1999.90;999.90;;;19.20;99.90;;;;;;4994362;28;20046;-77
2022/10/25 12:19:59;;;;;;;1999.90;999.90;;;19.00;99.90;;;;;;4997952;28;20503;-77
2022/10/25 12:22:32;;;;;;;1999.90;999.90;;;18.90;99.90;;;;;;4996361;28;20043;-77
2022/10/25 12:25:12;;;;;;;1999.90;999.90;;;18.70;99.90;;;;;;4997072;28;20031;-77
2022/10/25 12:27:41;;;;;;;1999.90;999.90;;;18.40;99.90;;;;;;4997195;28;20050;-77
2022/10/25 12:30:14;;;;;;;1999.90;999.90;;;18.20;99.90;;;;;;4996993;28;20031;-77
2022/10/25 12:32:50;;;;;;;1999.90;999.90;;;18.00;99.90;;;;;;4997122;28;20512;-77
2022/10/25 12:35:27;;;;;;;1999.90;999.90;;;17.90;99.90;;;;;;4995554;28;20042;-77
2022/10/25 12:37:55;;;;;;;1999.90;999.90;;;18.00;99.90;;;;;;4996868;28;20489;-76
2022/10/25 12:40:24;;;;;;;1999.90;999.90;;;18.30;99.90;;;;;;4997028;28;20035;-76
2022/10/25 12:42:58;;;;;;;1999.90;999.90;;;18.60;99.90;;;;;;4997185;28;20045;-76
2022/10/25 12:45:51;;;;;;;1999.90;999.90;;;18.80;99.90;;;;;;4997076;28;20484;-75
2022/10/25 12:48:38;;;;;;;1999.90;999.90;;;18.50;99.90;;;;;;4996739;28;20034;-75
2022/10/25 12:51:10;;;;;;;1999.90;999.90;;;18.30;99.90;;;;;;4996840;28;20043;-78
2022/10/25 12:53:51;;;;;;;1999.90;999.90;;;18.10;99.90;;;;;;4997146;28;20110;-76
2022/10/25 12:56:41;;;;;;;1999.90;999.90;;;18.10;99.90;;;;;;4996742;28;20462;-77
2022/10/25 12:59:19;;;;;;;1999.90;999.90;;;18.10;99.90;;;;;;4997822;28;20063;-78
2022/10/25 13:02:03;;;;;;;1999.90;999.90;;;18.40;99.90;;;;;;4997263;28;20074;-76
2022/10/25 13:04:29;;;;;;;1999.90;999.90;;;18.70;99.90;;;;;;4996731;28;20035;-76
2022/10/25 13:06:56;;;;;;;1999.90;999.90;;;18.90;99.90;;;;;;4996730;28;20120;-77
2022/10/25 13:09:22;;;;;;;1999.90;999.90;;;18.90;99.90;;;;;;4996526;28;20114;-76
2022/10/25 13:12:00;;;;;;;1999.90;999.90;;;18.80;99.90;;;;;;4996493;28;20504;-76
2022/10/25 13:14:29;;;;;;;1999.90;999.90;;;18.50;99.90;;;;;;4996043;28;20042;-76
2022/10/25 13:17:19;;;;;;;1999.90;999.90;;;18.40;99.90;;;;;;4995472;28;20480;-76
2022/10/25 13:19:52;;;;;;;1999.90;999.90;;;18.20;99.90;;;;;;4996348;28;20066;-75
2022/10/25 13:22:31;;;;;;;1999.90;999.90;;;18.10;99.90;;;;;;4996074;28;20517;-76
2022/10/25 13:25:04;;;;;;;1999.90;999.90;;;18.00;99.90;;;;;;4996043;28;20038;-76
2022/10/25 13:27:31;;;;;;;1999.90;999.90;;;18.00;99.90;;;;;;4995918;28;20077;-75
2022/10/25 13:30:05;;;;;;;1999.90;999.90;;;17.90;99.90;;;;;;4996473;28;20046;-76
2022/10/25 13:32:40;;;;;;;1999.90;999.90;;;17.90;99.90;;;;;;4996699;28;20145;-76
2022/10/25 13:35:21;;;;;;;1999.90;999.90;;;17.80;99.90;;;;;;4996621;28;20027;-77
2022/10/25 13:37:48;;;;;;;1999.90;999.90;;;17.70;99.90;;;;;;4997349;28;20497;-76
2022/10/25 13:40:19;;;;;;;1999.90;999.90;;;17.70;99.90;;;;;;4994795;28;20509;-83
2022/10/25 13:42:47;;;;;;;1999.90;999.90;;;17.80;99.90;;;;;;4996608;28;20050;-76
2022/10/25 13:45:39;;;;;;;1999.90;999.90;;;17.90;99.90;;;;;;4996240;28;20027;-77
2022/10/25 13:48:13;;;;;;;1999.90;999.90;;;17.90;99.90;;;;;;4995840;28;20035;-76
2022/10/25 13:50:54;;;;;;;1999.90;999.90;;;18.10;99.90;;;;;;4986805;28;20035;-77
2022/10/25 13:53:36;;;;;;;1999.90;999.90;;;18.20;99.90;;;;;;4977612;28;20043;-79
2022/10/25 13:56:15;;;;;;;1999.90;999.90;;;18.40;99.90;;;;;;4977777;28;20560;-77
2022/10/25 13:58:49;;;;;;;1999.90;999.90;;;18.60;99.90;;;;;;4974367;28;20449;-77
2022/10/25 14:01:15;;;;;;;1999.90;999.90;;;18.50;99.90;;;;;;4976289;28;20031;-77
2022/10/25 14:03:49;;;;;;;1999.90;999.90;;;18.50;99.90;;;;;;4975324;28;20039;-77
2022/10/25 14:06:29;;;;;;;1999.90;999.90;;;18.40;99.90;;;;;;4975816;28;20074;-77
2022/10/25 14:09:07;;;;;;;1999.90;999.90;;;18.40;99.90;;;;;;4975764;28;20098;-77
2022/10/25 14:11:46;;;;;;;1999.90;999.90;;;18.40;99.90;;;;;;4976386;28;20131;-76
2022/10/25 14:14:21;;;;;;;1999.90;999.90;;;18.30;99.90;;;;;;4982602;28;20039;-76
2022/10/25 14:17:02;;;;;;;1999.90;999.90;;;18.30;99.90;;;;;;4979066;28;20062;-77
2022/10/25 14:19:48;;;;;;;1999.90;999.90;;;18.30;99.90;;;;;;4976250;28;20442;-77
2022/10/25 14:22:29;;;;;;;1999.90;999.90;;;18.20;99.90;;;;;;4975805;28;20489;-76
2022/10/25 14:24:55;;;;;;;1999.90;999.90;;;18.00;99.90;;;;;;4974074;28;20043;-76
2022/10/25 14:27:35;;;;;;;1999.90;999.90;;;17.90;99.90;;;;;;4975846;28;20035;-76
2022/10/25 14:30:12;;;;;;;1999.90;999.90;;;17.80;99.90;;;;;;4976214;28;20035;-77
2022/10/25 14:32:38;;;;;;;1999.90;999.90;;;17.90;99.90;;;;;;4975475;28;20030;-77
2022/10/25 14:35:04;;;;;;;1999.90;999.90;;;17.90;99.90;;;;;;4975333;28;20039;-76
2022/10/25 14:37:29;;;;;;;1999.90;999.90;;;18.10;99.90;;;;;;4975405;28;20043;-77
2022/10/25 14:39:55;;;;;;;1999.90;999.90;;;18.10;99.90;;;;;;4975736;28;20477;-77
2022/10/25 14:42:20;;;;;;;1999.90;999.90;;;18.10;99.90;;;;;;4976254;28;20083;-76
2022/10/25 14:44:48;;;;;;;1999.90;999.90;;;18.20;99.90;;;;;;4976927;28;20035;-76
2022/10/25 14:47:31;;;;;;;1999.90;999.90;;;18.10;99.90;;;;;;4975592;28;20705;-76
2022/10/25 14:49:58;;;;;;;1999.90;999.90;;;18.00;99.90;;;;;;4974069;28;20035;-76
2022/10/25 14:52:25;;;;;;;1999.90;999.90;;;17.80;99.90;;;;;;4976317;28;20031;-76
2022/10/25 14:54:59;;;;;;;1999.90;999.90;;;17.80;99.90;;;;;;4975371;28;20039;-76
2022/10/25 14:57:26;;;;;;;1999.90;999.90;;;17.60;99.90;;;;;;4978799;28;20042;-76
2022/10/25 15:00:00;;;;;;;1999.90;999.90;;;17.70;99.90;;;;;;4975834;28;20063;-76
2022/10/25 15:02:38;;;;;;;1999.90;999.90;;;17.70;99.90;;;;;;4976280;28;20035;-76
2022/10/25 15:05:04;;;;;;;1999.90;999.90;;;17.70;99.90;;;;;;4976713;28;20064;-77
2022/10/25 15:07:34;;;;;;;1999.90;999.90;;;17.70;99.90;;;;;;4975677;28;20038;-76
2022/10/25 15:10:02;;;;;;;1999.90;999.90;;;17.60;99.90;;;;;;4975749;28;20457;-76
2022/10/25 15:12:29;;;;;;;1999.90;999.90;;;17.60;99.90;;;;;;4975624;28;20031;-76
2022/10/25 15:14:57;;;;;;;1999.90;999.90;;;17.50;99.90;;;;;;4977908;28;20059;-76
2022/10/25 15:17:24;;;;;;;1999.90;999.90;;;17.40;99.90;;;;;;4977060;28;20480;-76
2022/10/25 15:20:02;;;;;;;1999.90;999.90;;;17.30;99.90;;;;;;4977598;28;20095;-76
2022/10/25 15:22:30;;;;;;;1999.90;999.90;;;17.40;99.90;;;;;;4979553;28;20179;-76
2022/10/25 15:24:56;;;;;;;1999.90;999.90;;;17.20;99.90;;;;;;4977247;28;20039;-76
2022/10/25 15:27:38;;;;;;;1999.90;999.90;;;17.10;99.90;;;;;;4978901;28;20110;-76
2022/10/25 15:30:03;;;;;;;1999.90;999.90;;;16.90;99.90;;;;;;4979098;28;20035;-76
2022/10/25 15:32:29;;;;;;;1999.90;999.90;;;16.80;99.90;;;;;;4979274;28;20031;-76
2022/10/25 15:35:01;;;;;;;1999.90;999.90;;;16.70;99.90;;;;;;4978837;28;20524;-76
2022/10/25 15:37:28;;;;;;;1999.90;999.90;;;16.40;99.90;;;;;;4977235;28;20064;-76
2022/10/25 15:39:54;;;;;;;1999.90;999.90;;;16.20;99.90;;;;;;4979154;28;20543;-76
2022/10/25 15:42:23;;;;;;;1999.90;999.90;;;16.00;99.90;;;;;;4978835;28;20035;-76
2022/10/25 15:44:49;;;;;;;1999.90;999.90;;;15.90;99.90;;;;;;4978714;28;20099;-76
2022/10/25 15:47:34;;;;;;;1999.90;999.90;;;15.60;99.90;;;;;;4978776;28;20110;-76
2022/10/25 15:50:02;;;;;;;1999.90;999.90;;;15.50;99.90;;;;;;4977705;28;20039;-76
2022/10/25 15:52:28;;;;;;;1999.90;999.90;;;15.40;99.90;;;;;;4978832;28;20125;-76
2022/10/25 15:54:54;;;;;;;1999.90;999.90;;;15.10;99.90;;;;;;4978766;28;20162;-76
2022/10/25 15:57:19;;;;;;;1999.90;999.90;;;14.80;99.90;;;;;;4978911;28;20031;-76
2022/10/25 15:59:45;;;;;;;1999.90;999.90;;;14.70;99.90;;;;;;4977493;28;20035;-76
2022/10/25 16:02:25;;;;;;;1999.90;999.90;;;14.50;99.90;;;;;;4977632;28;20039;-76
2022/10/25 16:04:52;;;;;;;1999.90;999.90;;;14.30;99.90;;;;;;4979172;28;20087;-76
2022/10/25 16:07:17;;;;;;;1999.90;999.90;;;14.10;99.90;;;;;;4978447;28;20031;-76
2022/10/25 16:09:43;;;;;;;1999.90;999.90;;;14.00;99.90;;;;;;4978844;28;20058;-76
2022/10/25 16:12:17;;;;;;;1999.90;999.90;;;13.90;99.90;;;;;;4977449;28;20043;-76
2022/10/25 16:14:43;;;;;;;1999.90;999.90;;;13.90;99.90;;;;;;4978281;28;20043;-76
2022/10/25 16:17:09;;;;;;;1999.90;999.90;;;13.70;99.90;;;;;;4976886;28;20482;-76
2022/10/25 16:19:35;;;;;;;1999.90;999.90;;;13.60;99.90;;;;;;4977546;28;20050;-76
2022/10/25 16:22:00;;;;;;;1999.90;999.90;;;13.40;99.90;;;;;;4976423;28;20035;-76